createdAt,value
2022-12-18T00:02:03.193Z,0.10
2022-12-18T00:04:33.306Z,0.10
2022-12-18T00:07:03.710Z,0.10
2022-12-18T00:09:40.202Z,0.10
2022-12-18T00:14:49.222Z,0.10
2022-12-18T00:17:20.039Z,0.20
2022-12-18T00:19:50.238Z,0.10
2022-12-18T00:22:20.425Z,0.10
2022-12-18T00:24:50.702Z,0.20
2022-12-18T00:27:22.577Z,0.20
2022-12-18T00:29:52.697Z,0.20
2022-12-18T00:32:22.780Z,0.20
2022-12-18T00:34:53.422Z,0.10
2022-12-18T00:37:23.639Z,0.10
2022-12-18T00:39:54.173Z,0.10
2022-12-18T00:42:42.888Z,0.10
2022-12-18T00:45:13.897Z,0.10
2022-12-18T00:47:44.632Z,0.00
2022-12-18T00:50:15.697Z,0.00
2022-12-18T00:52:46.067Z,0.00
2022-12-18T00:55:16.846Z,0.00
2022-12-18T00:57:49.120Z,0.00
2022-12-18T01:00:20.030Z,0.00
2022-12-18T01:02:51.790Z,-0.10
2022-12-18T01:05:22.798Z,-0.10
2022-12-18T01:07:53.507Z,-0.10
2022-12-18T01:10:24.157Z,0.00
2022-12-18T01:12:56.183Z,0.00
2022-12-18T01:15:26.293Z,-0.10
2022-12-18T01:17:56.611Z,-0.10
2022-12-18T01:20:27.686Z,-0.10
2022-12-18T01:22:57.783Z,-0.10
2022-12-18T01:25:27.909Z,-0.10
2022-12-18T01:27:59.653Z,-0.10
2022-12-18T01:30:29.730Z,-0.10
2022-12-18T01:32:59.849Z,-0.20
2022-12-18T01:35:29.900Z,-0.10
2022-12-18T01:38:00.894Z,-0.10
2022-12-18T01:40:30.959Z,-0.20
2022-12-18T01:43:02.725Z,-0.20
2022-12-18T01:45:35.073Z,-0.20
2022-12-18T01:48:08.614Z,-0.20
2022-12-18T01:50:42.005Z,-0.20
2022-12-18T01:53:16.562Z,-0.20
2022-12-18T01:55:51.449Z,-0.20
2022-12-18T01:58:31.175Z,-0.10
2022-12-18T02:01:01.675Z,-0.20
2022-12-18T02:03:33.085Z,-0.20
2022-12-18T02:06:10.232Z,-0.10
2022-12-18T02:08:47.411Z,-0.10
2022-12-18T02:11:27.492Z,-0.10
2022-12-18T02:14:05.858Z,-0.20
2022-12-18T02:16:45.312Z,-0.20
2022-12-18T02:19:27.788Z,-0.20
2022-12-18T02:22:08.009Z,-0.20
2022-12-18T02:24:44.619Z,-0.20
2022-12-18T02:27:20.122Z,-0.20
2022-12-18T02:29:58.803Z,-0.20
2022-12-18T02:32:32.270Z,-0.20
2022-12-18T02:35:04.905Z,-0.10
2022-12-18T02:37:37.706Z,-0.10
2022-12-18T02:40:11.467Z,-0.10
2022-12-18T02:42:45.619Z,-0.10
2022-12-18T02:45:17.292Z,-0.10
2022-12-18T02:47:53.820Z,-0.20
2022-12-18T02:50:31.999Z,-0.20
2022-12-18T02:53:18.238Z,-0.30
2022-12-18T02:56:00.957Z,-0.30
2022-12-18T02:58:39.934Z,-0.30
2022-12-18T03:01:17.095Z,-0.40
2022-12-18T03:03:54.872Z,-0.30
2022-12-18T03:06:28.770Z,-0.40
2022-12-18T03:09:02.957Z,-0.40
2022-12-18T03:11:54.314Z,-0.40
2022-12-18T03:14:29.170Z,-0.40
2022-12-18T03:17:03.420Z,-0.40
2022-12-18T03:19:37.312Z,-0.40
2022-12-18T03:22:13.512Z,-0.40
2022-12-18T03:24:44.815Z,-0.50
2022-12-18T03:27:19.811Z,-0.50
2022-12-18T03:29:56.092Z,-0.50
2022-12-18T03:32:31.991Z,-0.50
2022-12-18T03:35:06.438Z,-0.40
2022-12-18T03:37:37.469Z,-0.40
2022-12-18T03:40:13.980Z,-0.40
2022-12-18T03:42:53.587Z,-0.50
2022-12-18T03:45:34.158Z,-0.50
2022-12-18T03:48:09.547Z,-0.50
2022-12-18T03:50:49.908Z,-0.50
2022-12-18T03:53:32.752Z,-0.50
2022-12-18T03:56:07.756Z,-0.50
2022-12-18T03:58:44.124Z,-0.50
2022-12-18T04:01:19.958Z,-0.50
2022-12-18T04:03:52.604Z,-0.60
2022-12-18T04:06:23.448Z,-0.60
2022-12-18T04:08:53.663Z,-0.60
2022-12-18T04:11:23.762Z,-0.60
2022-12-18T04:13:53.896Z,-0.50
2022-12-18T04:16:33.208Z,-0.40
2022-12-18T04:19:04.127Z,-0.40
2022-12-18T04:21:34.814Z,-0.40
2022-12-18T04:24:05.446Z,-0.40
2022-12-18T04:26:41.981Z,-0.40
2022-12-18T04:29:12.074Z,-0.30
2022-12-18T04:31:43.883Z,-0.30
2022-12-18T04:34:16.641Z,-0.30
2022-12-18T04:36:48.196Z,-0.40
2022-12-18T04:39:18.682Z,-0.40
2022-12-18T04:41:49.125Z,-0.30
2022-12-18T04:44:24.612Z,-0.40
2022-12-18T04:46:56.250Z,-0.40
2022-12-18T04:49:26.662Z,-0.40
2022-12-18T04:51:56.960Z,-0.40
2022-12-18T04:54:27.145Z,-0.40
2022-12-18T04:56:57.251Z,-0.40
2022-12-18T04:59:27.369Z,-0.30
2022-12-18T05:01:59.247Z,-0.40
2022-12-18T05:04:29.574Z,-0.40
2022-12-18T05:06:59.637Z,-0.30
2022-12-18T05:09:29.721Z,-0.30
2022-12-18T05:11:59.811Z,-0.40
2022-12-18T05:14:31.037Z,-0.40
2022-12-18T05:17:02.729Z,-0.40
2022-12-18T05:19:32.813Z,-0.40
2022-12-18T05:22:03.059Z,-0.50
2022-12-18T05:24:33.173Z,-0.50
2022-12-18T05:27:03.217Z,-0.50
2022-12-18T05:29:33.704Z,-0.50
2022-12-18T05:32:05.528Z,-0.50
2022-12-18T05:34:35.985Z,-0.50
2022-12-18T05:37:06.782Z,-0.60
2022-12-18T05:39:36.929Z,-0.60
2022-12-18T05:42:07.279Z,-0.50
2022-12-18T05:44:37.665Z,-0.50
2022-12-18T05:47:09.527Z,-0.50
2022-12-18T05:49:39.615Z,-0.60
2022-12-18T05:52:10.408Z,-0.60
2022-12-18T05:54:40.759Z,-0.60
2022-12-18T05:57:10.779Z,-0.60
2022-12-18T05:59:40.927Z,-0.60
2022-12-18T06:02:12.676Z,-0.60
2022-12-18T06:04:42.808Z,-0.60
2022-12-18T06:07:12.847Z,-0.60
2022-12-18T06:09:42.862Z,-0.60
2022-12-18T06:12:12.905Z,-0.60
2022-12-18T06:14:43.049Z,-0.60
2022-12-18T06:17:14.867Z,-0.60
2022-12-18T06:19:44.925Z,-0.60
2022-12-18T06:22:14.937Z,-0.60
2022-12-18T06:24:44.980Z,-0.60
2022-12-18T06:27:15.077Z,-0.60
2022-12-18T06:29:45.221Z,-0.60
2022-12-18T06:32:16.984Z,-0.60
2022-12-18T06:34:47.258Z,-0.60
2022-12-18T06:37:17.611Z,-0.60
2022-12-18T06:39:48.186Z,-0.60
2022-12-18T06:42:18.270Z,-0.60
2022-12-18T06:44:48.303Z,-0.60
2022-12-18T06:47:19.965Z,-0.60
2022-12-18T06:49:50.038Z,-0.60
2022-12-18T06:52:20.263Z,-0.60
2022-12-18T06:54:50.309Z,-0.60
2022-12-18T06:57:20.677Z,-0.60
2022-12-18T06:59:51.256Z,-0.60
2022-12-18T07:02:23.433Z,-0.60
2022-12-18T07:04:53.769Z,-0.60
2022-12-18T07:07:23.814Z,-0.60
2022-12-18T07:09:54.101Z,-0.60
2022-12-18T07:12:24.131Z,-0.60
2022-12-18T07:14:54.218Z,-0.70
2022-12-18T07:17:25.836Z,-0.60
2022-12-18T07:19:56.177Z,-0.60
2022-12-18T07:22:26.214Z,-0.60
2022-12-18T07:24:56.938Z,-0.70
2022-12-18T07:27:27.035Z,-0.70
2022-12-18T07:29:57.062Z,-0.70
2022-12-18T07:32:28.880Z,-0.70
2022-12-18T07:34:59.121Z,-0.70
2022-12-18T07:37:29.286Z,-0.70
2022-12-18T07:39:59.404Z,-0.70
2022-12-18T07:42:35.494Z,-0.80
2022-12-18T07:45:06.353Z,-0.70
2022-12-18T07:47:39.867Z,-0.70
2022-12-18T07:50:10.730Z,-0.70
2022-12-18T07:52:40.776Z,-0.70
2022-12-18T07:55:11.724Z,-0.80
2022-12-18T07:57:50.423Z,-0.70
2022-12-18T08:00:21.662Z,-0.80
2022-12-18T08:02:53.367Z,-0.80
2022-12-18T08:05:24.141Z,-0.80
2022-12-18T08:07:54.206Z,-0.80
2022-12-18T08:10:24.991Z,-0.80
2022-12-18T08:12:57.844Z,-0.80
2022-12-18T08:15:31.556Z,-0.80
2022-12-18T08:18:03.131Z,-0.80
2022-12-18T08:20:33.300Z,-0.80
2022-12-18T08:23:03.438Z,-0.90
2022-12-18T08:25:33.502Z,-0.90
2022-12-18T08:28:03.783Z,-0.90
2022-12-18T08:30:33.926Z,-0.90
2022-12-18T08:33:06.012Z,-0.90
2022-12-18T08:35:45.426Z,-0.90
2022-12-18T08:38:16.377Z,-0.90
2022-12-18T08:40:46.942Z,-0.90
2022-12-18T08:43:33.969Z,-0.90
2022-12-18T08:46:04.202Z,-0.90
2022-12-18T08:48:35.894Z,-0.90
2022-12-18T08:51:06.004Z,-0.90
2022-12-18T08:53:36.238Z,-0.90
2022-12-18T08:56:06.693Z,-1.00
2022-12-18T08:58:36.862Z,-1.00
2022-12-18T09:01:08.794Z,-1.00
2022-12-18T09:03:41.227Z,-1.00
2022-12-18T09:06:11.823Z,-1.00
2022-12-18T09:08:42.339Z,-1.00
2022-12-18T09:11:17.879Z,-1.10
2022-12-18T09:13:47.905Z,-1.10
2022-12-18T09:16:19.678Z,-1.10
2022-12-18T09:18:51.504Z,-1.10
2022-12-18T09:21:23.905Z,-1.10
2022-12-18T09:23:54.881Z,-1.20
2022-12-18T09:26:25.502Z,-1.20
2022-12-18T09:28:55.798Z,-1.30
2022-12-18T09:31:26.968Z,-1.30
2022-12-18T09:33:58.810Z,-1.30
2022-12-18T09:36:29.154Z,-1.40
2022-12-18T09:39:01.658Z,-1.40
2022-12-18T09:41:47.373Z,-1.50
2022-12-18T09:44:33.000Z,-1.60
2022-12-18T09:47:13.417Z,-1.60
2022-12-18T09:49:47.743Z,-1.70
2022-12-18T09:52:24.905Z,-1.80
2022-12-18T09:55:00.007Z,-1.90
2022-12-18T09:57:30.478Z,-2.00
2022-12-18T10:00:05.900Z,-2.10
2022-12-18T10:02:36.191Z,-2.20
2022-12-18T10:05:16.568Z,-2.40
2022-12-18T10:07:56.225Z,-2.50
2022-12-18T10:10:35.558Z,-2.60
2022-12-18T10:13:13.123Z,-2.80
2022-12-18T10:15:55.027Z,-3.00
2022-12-18T10:18:38.721Z,-3.20
2022-12-18T10:21:15.228Z,-3.40
2022-12-18T10:23:58.759Z,-3.60
2022-12-18T10:26:28.851Z,-3.80
2022-12-18T10:29:05.314Z,-4.00
2022-12-18T10:31:35.871Z,-4.30
2022-12-18T10:34:05.971Z,-4.40
2022-12-18T10:36:37.895Z,-4.60
2022-12-18T10:39:19.705Z,-4.70
2022-12-18T10:41:54.865Z,-4.80
2022-12-18T10:44:27.768Z,-4.80
2022-12-18T10:47:10.120Z,-4.80
2022-12-18T10:49:50.462Z,-4.80
2022-12-18T10:52:24.719Z,-4.80
2022-12-18T10:54:59.824Z,-4.80
2022-12-18T10:57:37.245Z,-4.70
2022-12-18T11:00:26.958Z,-4.70
2022-12-18T11:02:58.869Z,-4.70
2022-12-18T11:05:33.104Z,-4.80
2022-12-18T11:08:05.587Z,-4.90
2022-12-18T11:10:37.561Z,-4.90
2022-12-18T11:13:21.097Z,-5.00
2022-12-18T11:15:51.936Z,-5.00
2022-12-18T11:18:25.744Z,-5.10
2022-12-18T11:20:59.210Z,-5.30
2022-12-18T11:23:31.545Z,-5.40
2022-12-18T11:26:04.873Z,-5.50
2022-12-18T11:28:43.278Z,-5.50
2022-12-18T11:31:25.814Z,-5.60
2022-12-18T11:37:01.270Z,-5.60
2022-12-18T11:39:40.142Z,-5.60
2022-12-18T11:42:17.050Z,-5.70
2022-12-18T11:44:51.500Z,-5.80
2022-12-18T11:47:28.893Z,-5.90
2022-12-18T11:50:02.684Z,-6.00
2022-12-18T11:52:39.948Z,-6.30
2022-12-18T11:55:16.715Z,-6.40
2022-12-18T11:57:55.223Z,-6.50
2022-12-18T12:00:26.430Z,-6.60
2022-12-18T12:03:28.585Z,-6.70
2022-12-18T12:06:16.110Z,-7.00
2022-12-18T12:09:04.327Z,-7.20
2022-12-18T12:11:46.202Z,-7.50
2022-12-18T12:14:39.000Z,-7.50
2022-12-18T12:17:16.987Z,-7.40
2022-12-18T12:19:56.387Z,-7.20
2022-12-18T12:22:34.096Z,-7.10
2022-12-18T12:25:22.486Z,-7.10
2022-12-18T12:28:03.131Z,-6.90
2022-12-18T12:30:44.061Z,-6.90
2022-12-18T12:33:28.129Z,-6.90
2022-12-18T12:36:10.583Z,-6.90
2022-12-18T12:38:51.917Z,-6.90
2022-12-18T12:41:42.669Z,-6.90
2022-12-18T12:44:22.329Z,-6.90
2022-12-18T12:46:55.624Z,-7.00
2022-12-18T12:49:31.209Z,-6.90
2022-12-18T12:52:07.780Z,-6.90
2022-12-18T12:54:38.655Z,-6.90
2022-12-18T12:57:16.192Z,-6.90
2022-12-18T12:59:54.526Z,-6.90
2022-12-18T13:02:31.911Z,-6.90
2022-12-18T13:05:07.142Z,-6.90
2022-12-18T13:07:43.181Z,-6.90
2022-12-18T13:10:34.516Z,-7.00
2022-12-18T13:13:05.381Z,-7.00
2022-12-18T13:15:42.931Z,-7.10
2022-12-18T13:18:24.416Z,-7.10
2022-12-18T13:21:05.495Z,-7.10
2022-12-18T13:23:38.229Z,-7.10
2022-12-18T13:26:44.411Z,-7.10
2022-12-18T13:29:14.634Z,-7.10
2022-12-18T13:32:24.902Z,-7.10
2022-12-18T13:35:31.323Z,-7.20
2022-12-18T13:38:01.469Z,-7.20
2022-12-18T13:41:01.954Z,-7.20
2022-12-18T13:43:45.145Z,-7.20
2022-12-18T13:46:27.169Z,-7.20
2022-12-18T13:49:04.944Z,-7.40
2022-12-18T13:51:37.093Z,-7.50
2022-12-18T13:54:23.733Z,-7.60
2022-12-18T13:56:53.879Z,-7.60
2022-12-18T13:59:25.145Z,-7.70
2022-12-18T14:01:57.957Z,-7.70
2022-12-18T14:04:32.549Z,-7.70
2022-12-18T14:07:07.529Z,-7.60
2022-12-18T14:09:41.055Z,-7.50
2022-12-18T14:12:35.723Z,-7.40
2022-12-18T14:15:07.334Z,-7.30
2022-12-18T14:17:39.513Z,-7.10
2022-12-18T14:20:17.699Z,-7.00
2022-12-18T14:22:50.107Z,-6.80
2022-12-18T14:25:22.178Z,-6.70
2022-12-18T14:27:55.156Z,-6.70
2022-12-18T14:30:34.170Z,-6.60
2022-12-18T14:33:07.344Z,-6.50
2022-12-18T14:35:41.242Z,-6.40
2022-12-18T14:38:33.597Z,-6.30
2022-12-18T14:41:05.085Z,-6.10
2022-12-18T14:43:37.986Z,-6.00
2022-12-18T14:46:28.838Z,-5.80
2022-12-18T14:48:59.835Z,-5.60
2022-12-18T14:51:32.867Z,-5.50
2022-12-18T14:54:04.537Z,-5.30
2022-12-18T14:56:37.040Z,-5.30
2022-12-18T14:59:09.021Z,-5.30
2022-12-18T15:01:41.602Z,-5.30
2022-12-18T15:04:28.835Z,-5.30
2022-12-18T15:07:19.501Z,-5.20
2022-12-18T15:10:07.251Z,-5.20
2022-12-18T15:12:39.282Z,-5.10
2022-12-18T15:15:24.582Z,-5.10
2022-12-18T15:18:01.509Z,-5.00
2022-12-18T15:20:34.795Z,-4.90
2022-12-18T15:23:06.484Z,-4.90
2022-12-18T15:25:40.134Z,-4.70
2022-12-18T15:28:25.233Z,-4.60
2022-12-18T15:31:09.863Z,-4.50
2022-12-18T15:33:43.010Z,-4.40
2022-12-18T15:36:15.236Z,-4.40
2022-12-18T15:38:50.680Z,-4.20
2022-12-18T15:41:24.855Z,-4.00
2022-12-18T15:43:56.572Z,-3.70
2022-12-18T15:46:28.251Z,-3.30
2022-12-18T15:49:02.285Z,-2.80
2022-12-18T15:51:35.928Z,-2.20
2022-12-18T15:54:13.162Z,-1.60
2022-12-18T15:57:00.222Z,-1.30
2022-12-18T15:59:30.753Z,-1.60
2022-12-18T16:02:00.899Z,-1.40
2022-12-18T16:04:32.570Z,-1.50
2022-12-18T16:07:14.840Z,-1.10
2022-12-18T16:09:48.047Z,-0.90
2022-12-18T16:12:20.987Z,-0.90
2022-12-18T16:14:51.280Z,-0.80
2022-12-18T16:17:21.999Z,-0.80
2022-12-18T16:19:52.010Z,-0.80
2022-12-18T16:22:27.200Z,-0.80
2022-12-18T16:24:59.664Z,-1.10
2022-12-18T16:27:29.810Z,-1.20
2022-12-18T16:30:00.553Z,-1.30
2022-12-18T16:32:30.880Z,-1.20
2022-12-18T16:35:04.535Z,-1.20
2022-12-18T16:37:34.875Z,-1.10
2022-12-18T16:40:07.147Z,-1.00
2022-12-18T16:42:37.182Z,-0.80
2022-12-18T16:45:08.564Z,-0.70
2022-12-18T16:47:38.811Z,-0.80
2022-12-18T16:50:10.240Z,-0.60
2022-12-18T16:52:40.548Z,-0.40
2022-12-18T16:55:13.024Z,0.00
2022-12-18T16:57:43.047Z,-0.30
2022-12-18T17:00:14.581Z,-0.70
2022-12-18T17:02:44.962Z,-0.80
2022-12-18T17:05:15.283Z,-1.10
2022-12-18T17:07:45.356Z,-0.90
2022-12-18T17:10:17.484Z,-0.90
2022-12-18T17:12:47.676Z,-0.60
2022-12-18T17:15:17.911Z,-0.30
2022-12-18T17:17:49.675Z,0.00
2022-12-18T17:20:19.895Z,0.30
2022-12-18T17:22:49.960Z,0.60
2022-12-18T17:25:21.593Z,0.50
2022-12-18T17:27:53.648Z,0.10
2022-12-18T17:30:23.717Z,0.10
2022-12-18T17:32:53.760Z,-0.20
2022-12-18T17:35:23.763Z,-0.50
2022-12-18T17:37:54.077Z,-0.70
2022-12-18T17:40:26.120Z,-0.80
2022-12-18T17:42:56.492Z,-1.00
2022-12-18T17:45:26.549Z,-1.00
2022-12-18T17:47:59.869Z,-1.00
2022-12-18T17:50:30.289Z,-0.80
2022-12-18T17:53:00.846Z,-0.60
2022-12-18T17:55:32.611Z,-0.40
2022-12-18T17:58:02.675Z,-0.30
2022-12-18T18:00:32.716Z,-0.20
2022-12-18T18:03:03.072Z,0.10
2022-12-18T18:05:33.463Z,0.30
2022-12-18T18:08:03.525Z,0.40
2022-12-18T18:10:38.843Z,0.80
2022-12-18T18:13:29.748Z,1.10
2022-12-18T18:16:04.156Z,1.20
2022-12-18T18:18:34.252Z,1.50
2022-12-18T18:21:07.947Z,1.50
2022-12-18T18:23:38.887Z,1.40
2022-12-18T18:26:12.922Z,1.10
2022-12-18T18:28:43.157Z,0.60
2022-12-18T18:31:14.375Z,0.60
2022-12-18T18:33:44.909Z,0.60
2022-12-18T18:36:15.015Z,0.60
2022-12-18T18:38:48.379Z,0.50
2022-12-18T18:41:22.755Z,0.50
2022-12-18T18:43:56.348Z,0.70
2022-12-18T18:46:27.196Z,0.40
2022-12-18T18:48:58.509Z,0.30
2022-12-18T18:51:34.509Z,0.00
2022-12-18T18:54:05.276Z,-0.30
2022-12-18T18:57:04.026Z,-0.50
2022-12-18T18:59:31.349Z,-0.70
2022-12-18T19:02:04.590Z,-0.70
2022-12-18T19:04:35.819Z,-0.80
2022-12-18T19:07:07.997Z,-0.90
2022-12-18T19:09:38.338Z,-0.90
2022-12-18T19:12:27.105Z,-1.00
2022-12-18T19:14:57.501Z,-1.00
2022-12-18T19:17:30.599Z,-1.00
2022-12-18T19:20:01.660Z,-1.00
2022-12-18T19:22:32.249Z,-1.10
2022-12-18T19:25:02.515Z,-1.10
2022-12-18T19:27:37.044Z,-1.10
2022-12-18T19:30:07.862Z,-1.10
2022-12-18T19:32:38.061Z,-1.10
2022-12-18T19:35:08.831Z,-1.20
2022-12-18T19:37:39.679Z,-1.20
2022-12-18T19:40:12.299Z,-1.20
2022-12-18T19:42:46.406Z,-1.30
2022-12-18T19:45:18.104Z,-1.30
2022-12-18T19:47:48.535Z,-1.40
2022-12-18T19:50:18.714Z,-1.40
2022-12-18T19:52:48.821Z,-1.50
2022-12-18T19:55:19.394Z,-1.50
2022-12-18T19:57:50.972Z,-1.50
2022-12-18T20:00:21.664Z,-1.50
2022-12-18T20:02:52.812Z,-1.60
2022-12-18T20:05:25.940Z,-1.60
2022-12-18T20:07:56.032Z,-1.60
2022-12-18T20:10:26.129Z,-1.60
2022-12-18T20:12:57.760Z,-1.50
2022-12-18T20:15:28.846Z,-1.40
2022-12-18T20:17:58.881Z,-1.40
2022-12-18T20:20:29.946Z,-1.30
2022-12-18T20:23:00.994Z,-1.30
2022-12-18T20:25:31.083Z,-1.30
2022-12-18T20:28:02.744Z,-1.40
2022-12-18T20:30:32.970Z,-1.50
2022-12-18T20:33:03.115Z,-1.60
2022-12-18T20:35:35.010Z,-1.60
2022-12-18T20:38:06.421Z,-1.50
2022-12-18T20:40:37.545Z,-1.40
2022-12-18T20:43:13.795Z,-1.30
2022-12-18T20:45:47.446Z,-1.20
2022-12-18T20:48:19.228Z,-1.20
2022-12-18T20:51:02.077Z,-1.20
2022-12-18T20:53:34.289Z,-1.20
2022-12-18T20:56:08.285Z,-1.20
2022-12-18T20:58:40.451Z,-1.20
2022-12-18T21:01:12.714Z,-1.20
2022-12-18T21:03:44.180Z,-1.20
2022-12-18T21:06:16.040Z,-1.20
2022-12-18T21:08:46.655Z,-1.20
2022-12-18T21:11:32.210Z,-1.20
2022-12-18T21:14:04.883Z,-1.30
2022-12-18T21:16:35.138Z,-1.30
2022-12-18T21:19:05.505Z,-1.30
2022-12-18T21:21:38.712Z,-1.30
2022-12-18T21:24:10.419Z,-1.30
2022-12-18T21:26:45.670Z,-1.40
2022-12-18T21:29:19.215Z,-1.40
2022-12-18T21:31:50.179Z,-1.40
2022-12-18T21:34:22.317Z,-1.50
2022-12-18T21:36:52.815Z,-1.50
2022-12-18T21:39:23.180Z,-1.50
2022-12-18T21:42:10.412Z,-1.60
2022-12-18T21:44:42.654Z,-1.60
2022-12-18T21:47:21.677Z,-1.60
2022-12-18T21:49:53.636Z,-1.60
2022-12-18T21:52:24.837Z,-1.60
2022-12-18T21:55:09.735Z,-1.60
2022-12-18T21:57:40.809Z,-1.60
2022-12-18T22:00:18.526Z,-1.60
2022-12-18T22:02:59.917Z,-1.60
2022-12-18T22:05:39.289Z,-1.60
2022-12-18T22:08:09.483Z,-1.60
2022-12-18T22:10:40.190Z,-1.60
2022-12-18T22:13:10.743Z,-1.60
2022-12-18T22:15:42.396Z,-1.60
2022-12-18T22:18:13.721Z,-1.60
2022-12-18T22:20:43.779Z,-1.70
2022-12-18T22:23:13.867Z,-1.70
2022-12-18T22:25:43.875Z,-1.70
2022-12-18T22:28:42.197Z,-1.70
2022-12-18T22:31:13.855Z,-1.70
2022-12-18T22:33:44.036Z,-1.70
2022-12-18T22:36:16.134Z,-1.70
2022-12-18T22:38:50.177Z,-1.70
2022-12-18T22:41:21.926Z,-1.70
2022-12-18T22:43:52.016Z,-1.70
2022-12-18T22:46:24.848Z,-1.70
2022-12-18T22:48:55.022Z,-1.70
2022-12-18T22:51:25.143Z,-1.70
2022-12-18T22:53:55.543Z,-1.80
2022-12-18T22:56:26.013Z,-1.80
2022-12-18T22:58:56.031Z,-1.80
2022-12-18T23:01:31.932Z,-1.80
2022-12-18T23:04:03.027Z,-1.80
2022-12-18T23:06:33.052Z,-1.90
2022-12-18T23:09:03.081Z,-1.90
2022-12-18T23:11:33.097Z,-2.00
2022-12-18T23:14:03.551Z,-2.00
2022-12-18T23:16:35.777Z,-2.10
2022-12-18T23:19:06.420Z,-2.10
2022-12-18T23:21:36.756Z,-2.10
2022-12-18T23:24:07.805Z,-2.20
2022-12-18T23:26:38.000Z,-2.20
2022-12-18T23:29:08.055Z,-2.20
2022-12-18T23:31:41.352Z,-2.20
2022-12-18T23:34:14.137Z,-2.20
2022-12-18T23:36:46.367Z,-2.20
2022-12-18T23:39:29.112Z,-2.20
2022-12-18T23:42:00.024Z,-2.20
2022-12-18T23:44:30.608Z,-2.20
2022-12-18T23:47:04.513Z,-2.20
2022-12-18T23:49:34.970Z,-2.20
2022-12-18T23:52:05.178Z,-2.30
2022-12-18T23:54:35.454Z,-2.30
2022-12-18T23:57:05.556Z,-2.40
2022-12-18T23:59:36.144Z,-2.50
